CXA924 KDEN-KLAX
Flight info
| Callsign | CXA924 |
|---|---|
| Flight time | 1h 46m |
| Altitude | 34000 |
| Route | BAYLR6 TEHRU DCT JASSE Q90 DNERO ANJLL4 |
| Aircraft | A20N/M-L/7000 |
Departure
| Time | 2026-05-06 11:31 |
|---|---|
| Airport | Denver International Airport (KDEN) |
Arrival
| Time | 2026-05-06 13:18 |
|---|---|
| Airport | Los Angeles International Airport (KLAX) |
| Time | Latitude | Longitude | Altitude | Speed | Heading |
|---|---|---|---|---|---|
| 2026-05-06 11:02 | 39.85341 | -104.67712 | 5386 ft | 0 kts | 12° |
| 2026-05-06 11:16 | 39.85337 | -104.67713 | 5386 ft | 2 kts | 12° |
| 2026-05-06 11:17 | 39.85318 | -104.67719 | 5382 ft | 3 kts | 17° |
| 2026-05-06 11:17 | 39.85299 | -104.67727 | 5384 ft | 3 kts | 12° |
| 2026-05-06 11:17 | 39.85283 | -104.67730 | 5384 ft | 3 kts | 316° |
| 2026-05-06 11:17 | 39.85280 | -104.67727 | 5384 ft | 0 kts | 271° |
| 2026-05-06 11:22 | 39.85280 | -104.67732 | 5385 ft | 0 kts | 272° |
| 2026-05-06 11:22 | 39.85280 | -104.67736 | 5386 ft | 2 kts | 272° |
| 2026-05-06 11:22 | 39.85281 | -104.67784 | 5386 ft | 7 kts | 272° |
| 2026-05-06 11:22 | 39.85281 | -104.67848 | 5386 ft | 7 kts | 268° |
| 2026-05-06 11:23 | 39.85278 | -104.67910 | 5386 ft | 7 kts | 268° |
| 2026-05-06 11:23 | 39.85278 | -104.67968 | 5386 ft | 5 kts | 270° |
| 2026-05-06 11:23 | 39.85279 | -104.68004 | 5386 ft | 3 kts | 273° |
| 2026-05-06 11:23 | 39.85280 | -104.68033 | 5386 ft | 3 kts | 275° |
| 2026-05-06 11:24 | 39.85281 | -104.68044 | 5386 ft | 0 kts | 276° |
| 2026-05-06 11:24 | 39.85282 | -104.68051 | 5386 ft | 6 kts | 276° |
| 2026-05-06 11:25 | 39.85284 | -104.68115 | 5386 ft | 7 kts | 259° |
| 2026-05-06 11:25 | 39.85257 | -104.68162 | 5386 ft | 6 kts | 227° |
| 2026-05-06 11:25 | 39.85237 | -104.68197 | 5387 ft | 5 kts | 240° |
| 2026-05-06 11:25 | 39.85223 | -104.68240 | 5387 ft | 6 kts | 250° |
| 2026-05-06 11:26 | 39.85207 | -104.68295 | 5387 ft | 8 kts | 251° |
| 2026-05-06 11:26 | 39.85188 | -104.68377 | 5384 ft | 12 kts | 258° |
| 2026-05-06 11:26 | 39.85203 | -104.68538 | 5367 ft | 21 kts | 283° |
| 2026-05-06 11:26 | 39.85201 | -104.68683 | 5362 ft | 12 kts | 269° |
| 2026-05-06 11:27 | 39.85201 | -104.68784 | 5359 ft | 10 kts | 270° |
| 2026-05-06 11:27 | 39.85201 | -104.68882 | 5357 ft | 14 kts | 270° |
| 2026-05-06 11:27 | 39.85203 | -104.69025 | 5351 ft | 17 kts | 271° |
| 2026-05-06 11:27 | 39.85195 | -104.69176 | 5346 ft | 17 kts | 263° |
| 2026-05-06 11:28 | 39.85197 | -104.69316 | 5341 ft | 10 kts | 273° |
| 2026-05-06 11:28 | 39.85200 | -104.69377 | 5340 ft | 3 kts | 274° |
| 2026-05-06 11:28 | 39.85200 | -104.69383 | 5340 ft | 0 kts | 274° |
| 2026-05-06 11:28 | 39.85200 | -104.69394 | 5342 ft | 2 kts | 274° |
| 2026-05-06 11:29 | 39.85202 | -104.69418 | 5342 ft | 3 kts | 274° |
| 2026-05-06 11:29 | 39.85204 | -104.69457 | 5338 ft | 5 kts | 274° |
| 2026-05-06 11:29 | 39.85207 | -104.69513 | 5334 ft | 7 kts | 274° |
| 2026-05-06 11:29 | 39.85210 | -104.69573 | 5335 ft | 6 kts | 274° |
| 2026-05-06 11:30 | 39.85213 | -104.69618 | 5334 ft | 4 kts | 277° |
| 2026-05-06 11:30 | 39.85218 | -104.69639 | 5337 ft | 1 kts | 296° |
| 2026-05-06 11:30 | 39.85227 | -104.69649 | 5335 ft | 5 kts | 323° |
| 2026-05-06 11:30 | 39.85271 | -104.69664 | 5337 ft | 12 kts | 354° |
| 2026-05-06 11:31 | 39.85597 | -104.69667 | 5341 ft | 82 kts | 2° |
| 2026-05-06 11:31 | 39.86382 | -104.69651 | 5333 ft | 141 kts | 0° |
| 2026-05-06 11:31 | 39.87846 | -104.69626 | 5935 ft | 161 kts | 1° |
| 2026-05-06 11:31 | 39.88998 | -104.69613 | 6680 ft | 170 kts | 2° |
| 2026-05-06 11:32 | 39.89793 | -104.69607 | 7143 ft | 173 kts | 2° |
| 2026-05-06 11:32 | 39.91043 | -104.69596 | 7616 ft | 188 kts | 2° |
| 2026-05-06 11:32 | 39.92417 | -104.69581 | 7979 ft | 206 kts | 2° |
| 2026-05-06 11:32 | 39.93913 | -104.69565 | 8328 ft | 225 kts | 2° |
| 2026-05-06 11:33 | 39.95524 | -104.69548 | 8622 ft | 245 kts | 2° |
| 2026-05-06 11:33 | 39.97311 | -104.69529 | 8928 ft | 268 kts | 1° |
| 2026-05-06 11:33 | 39.99230 | -104.69510 | 9474 ft | 280 kts | 1° |
| 2026-05-06 11:33 | 40.01198 | -104.69652 | 9971 ft | 285 kts | 348° |
| 2026-05-06 11:34 | 40.03051 | -104.70729 | 10019 ft | 309 kts | 324° |
| 2026-05-06 11:34 | 40.03854 | -104.71674 | 10010 ft | 324 kts | 312° |
| 2026-05-06 11:34 | 40.05054 | -104.74327 | 10007 ft | 335 kts | 289° |
| 2026-05-06 11:34 | 40.05360 | -104.77255 | 10003 ft | 319 kts | 265° |
| 2026-05-06 11:35 | 40.04774 | -104.79941 | 10008 ft | 301 kts | 240° |
| 2026-05-06 11:35 | 40.03453 | -104.81928 | 10013 ft | 287 kts | 213° |
| 2026-05-06 11:35 | 40.01563 | -104.82964 | 10015 ft | 310 kts | 188° |
| 2026-05-06 11:35 | 39.99317 | -104.83149 | 10013 ft | 332 kts | 180° |
| 2026-05-06 11:36 | 39.97022 | -104.83303 | 10002 ft | 325 kts | 184° |
| 2026-05-06 11:36 | 39.94839 | -104.83712 | 10004 ft | 309 kts | 189° |
| 2026-05-06 11:36 | 39.92819 | -104.84305 | 10003 ft | 293 kts | 193° |
| 2026-05-06 11:36 | 39.90888 | -104.84999 | 10007 ft | 288 kts | 195° |
| 2026-05-06 11:37 | 39.88886 | -104.85781 | 10017 ft | 316 kts | 196° |
| 2026-05-06 11:37 | 39.86704 | -104.86657 | 10007 ft | 335 kts | 196° |
| 2026-05-06 11:37 | 39.84499 | -104.87550 | 10004 ft | 324 kts | 197° |
| 2026-05-06 11:37 | 39.82400 | -104.88401 | 9984 ft | 308 kts | 197° |
| 2026-05-06 11:38 | 39.80406 | -104.89211 | 9980 ft | 292 kts | 198° |
| 2026-05-06 11:38 | 39.78635 | -104.90418 | 9800 ft | 291 kts | 219° |
| 2026-05-06 11:38 | 39.77303 | -104.92401 | 9933 ft | 294 kts | 240° |
| 2026-05-06 11:38 | 39.76549 | -104.94904 | 10321 ft | 307 kts | 255° |
| 2026-05-06 11:39 | 39.75945 | -104.97657 | 10619 ft | 327 kts | 255° |
| 2026-05-06 11:39 | 39.75315 | -105.00533 | 11260 ft | 333 kts | 255° |
| 2026-05-06 11:39 | 39.74610 | -105.03409 | 12136 ft | 334 kts | 249° |
| 2026-05-06 11:39 | 39.73700 | -105.06198 | 12899 ft | 337 kts | 247° |
| 2026-05-06 11:40 | 39.72789 | -105.08963 | 13732 ft | 338 kts | 247° |
| 2026-05-06 11:40 | 39.71853 | -105.11811 | 14472 ft | 339 kts | 248° |
| 2026-05-06 11:40 | 39.70928 | -105.14627 | 15214 ft | 339 kts | 248° |
| 2026-05-06 11:40 | 39.70015 | -105.17409 | 15918 ft | 340 kts | 248° |
| 2026-05-06 11:41 | 39.69082 | -105.20248 | 16640 ft | 341 kts | 249° |
| 2026-05-06 11:41 | 39.68147 | -105.23089 | 17337 ft | 343 kts | 249° |
| 2026-05-06 11:41 | 39.67211 | -105.25930 | 18037 ft | 343 kts | 250° |
| 2026-05-06 11:41 | 39.66269 | -105.28788 | 18679 ft | 345 kts | 250° |
| 2026-05-06 11:42 | 39.65320 | -105.31670 | 19231 ft | 347 kts | 250° |
| 2026-05-06 11:42 | 39.64366 | -105.34562 | 19799 ft | 350 kts | 249° |
| 2026-05-06 11:42 | 39.63403 | -105.37480 | 20353 ft | 352 kts | 249° |
| 2026-05-06 11:42 | 39.62438 | -105.40405 | 20897 ft | 353 kts | 249° |
| 2026-05-06 11:43 | 39.61467 | -105.43341 | 21107 ft | 357 kts | 249° |
| 2026-05-06 11:43 | 39.60482 | -105.46325 | 21588 ft | 359 kts | 249° |
| 2026-05-06 11:43 | 39.59511 | -105.49266 | 22169 ft | 361 kts | 249° |
| 2026-05-06 11:44 | 39.57514 | -105.55279 | 23223 ft | 366 kts | 249° |
| 2026-05-06 11:44 | 39.56499 | -105.58322 | 23701 ft | 369 kts | 249° |
| 2026-05-06 11:44 | 39.55478 | -105.61388 | 24113 ft | 371 kts | 249° |
| 2026-05-06 11:44 | 39.54576 | -105.64531 | 24569 ft | 372 kts | 252° |
| 2026-05-06 11:45 | 39.53706 | -105.67703 | 25006 ft | 374 kts | 252° |
| 2026-05-06 11:45 | 39.52828 | -105.70890 | 25417 ft | 377 kts | 252° |
| 2026-05-06 11:45 | 39.51939 | -105.74103 | 25806 ft | 379 kts | 251° |
| 2026-05-06 11:45 | 39.51048 | -105.77318 | 26219 ft | 380 kts | 251° |
| 2026-05-06 11:46 | 39.50149 | -105.80557 | 26565 ft | 384 kts | 251° |
| 2026-05-06 11:46 | 39.49247 | -105.83805 | 26933 ft | 386 kts | 251° |
| 2026-05-06 11:46 | 39.48333 | -105.87087 | 27321 ft | 387 kts | 251° |
| 2026-05-06 11:46 | 39.47417 | -105.90374 | 27643 ft | 390 kts | 251° |
| 2026-05-06 11:47 | 39.46493 | -105.93685 | 27976 ft | 392 kts | 251° |
| 2026-05-06 11:47 | 39.45575 | -105.96968 | 28311 ft | 394 kts | 251° |
| 2026-05-06 11:47 | 39.44624 | -106.00368 | 28632 ft | 397 kts | 251° |
| 2026-05-06 11:47 | 39.43695 | -106.03687 | 28943 ft | 399 kts | 251° |
| 2026-05-06 11:48 | 39.42746 | -106.07069 | 29254 ft | 401 kts | 251° |
| 2026-05-06 11:48 | 39.41793 | -106.10463 | 29525 ft | 403 kts | 251° |
| 2026-05-06 11:48 | 39.40832 | -106.13881 | 29786 ft | 406 kts | 251° |
| 2026-05-06 11:48 | 39.39863 | -106.17320 | 30090 ft | 407 kts | 251° |
| 2026-05-06 11:49 | 39.38890 | -106.20772 | 30340 ft | 410 kts | 251° |
| 2026-05-06 11:49 | 39.37911 | -106.24239 | 30575 ft | 412 kts | 251° |
| 2026-05-06 11:49 | 39.36924 | -106.27726 | 30825 ft | 414 kts | 251° |
| 2026-05-06 11:49 | 39.35933 | -106.31227 | 31094 ft | 416 kts | 251° |
| 2026-05-06 11:50 | 39.34940 | -106.34728 | 31396 ft | 416 kts | 251° |
| 2026-05-06 11:50 | 39.33943 | -106.38235 | 31714 ft | 416 kts | 252° |
| 2026-05-06 11:50 | 39.32946 | -106.41741 | 32003 ft | 415 kts | 252° |
| 2026-05-06 11:50 | 39.31950 | -106.45239 | 32307 ft | 415 kts | 252° |
| 2026-05-06 11:51 | 39.30953 | -106.48736 | 32628 ft | 414 kts | 252° |
| 2026-05-06 11:51 | 39.29955 | -106.52231 | 32934 ft | 414 kts | 252° |
| 2026-05-06 11:51 | 39.28959 | -106.55715 | 33215 ft | 414 kts | 252° |
| 2026-05-06 11:51 | 39.27962 | -106.59198 | 33486 ft | 414 kts | 252° |
| 2026-05-06 11:52 | 39.26964 | -106.62681 | 33730 ft | 414 kts | 252° |
| 2026-05-06 11:52 | 39.25980 | -106.66109 | 33883 ft | 417 kts | 252° |
| 2026-05-06 11:52 | 39.23501 | -106.73011 | 33946 ft | 430 kts | 242° |
| 2026-05-06 11:53 | 39.20034 | -106.79429 | 33952 ft | 441 kts | 236° |
| 2026-05-06 11:53 | 39.16333 | -106.85802 | 33950 ft | 447 kts | 237° |
| 2026-05-06 11:54 | 39.12602 | -106.92253 | 33947 ft | 450 kts | 237° |
| 2026-05-06 11:54 | 39.08855 | -106.98727 | 33928 ft | 452 kts | 237° |
| 2026-05-06 11:55 | 39.05083 | -107.05227 | 33906 ft | 454 kts | 237° |
| 2026-05-06 11:55 | 39.01281 | -107.11760 | 33885 ft | 456 kts | 237° |
| 2026-05-06 11:56 | 38.97467 | -107.18298 | 33863 ft | 458 kts | 237° |
| 2026-05-06 11:56 | 38.93636 | -107.24852 | 33854 ft | 459 kts | 237° |
| 2026-05-06 11:57 | 38.89789 | -107.31420 | 33847 ft | 461 kts | 237° |
| 2026-05-06 11:57 | 38.85926 | -107.38001 | 33847 ft | 461 kts | 237° |
| 2026-05-06 11:58 | 38.82082 | -107.44539 | 33841 ft | 463 kts | 237° |
| 2026-05-06 11:58 | 38.78150 | -107.51212 | 33834 ft | 464 kts | 237° |
| 2026-05-06 11:59 | 38.74304 | -107.57724 | 33839 ft | 464 kts | 237° |
| 2026-05-06 11:59 | 38.70404 | -107.64317 | 33863 ft | 465 kts | 237° |
| 2026-05-06 12:00 | 38.66489 | -107.70920 | 33891 ft | 466 kts | 237° |
| 2026-05-06 12:00 | 38.62552 | -107.77546 | 33929 ft | 467 kts | 237° |
| 2026-05-06 12:01 | 38.58637 | -107.84122 | 33960 ft | 468 kts | 237° |
| 2026-05-06 12:01 | 38.54680 | -107.90757 | 33967 ft | 469 kts | 237° |
| 2026-05-06 12:02 | 38.50708 | -107.97401 | 33968 ft | 470 kts | 237° |
| 2026-05-06 12:02 | 38.46730 | -108.04044 | 33939 ft | 471 kts | 237° |
| 2026-05-06 12:03 | 38.42744 | -108.10685 | 33907 ft | 472 kts | 237° |
| 2026-05-06 12:03 | 38.38744 | -108.17336 | 33880 ft | 473 kts | 237° |
| 2026-05-06 12:04 | 38.34755 | -108.23954 | 33850 ft | 474 kts | 237° |
| 2026-05-06 12:04 | 38.30726 | -108.30626 | 33833 ft | 476 kts | 237° |
| 2026-05-06 12:05 | 38.26677 | -108.37318 | 33842 ft | 477 kts | 237° |
| 2026-05-06 12:05 | 38.22622 | -108.44005 | 33844 ft | 478 kts | 237° |
| 2026-05-06 12:06 | 38.18554 | -108.50700 | 33842 ft | 479 kts | 237° |
| 2026-05-06 12:06 | 38.14465 | -108.57416 | 33845 ft | 480 kts | 237° |
| 2026-05-06 12:07 | 38.10380 | -108.64110 | 33851 ft | 480 kts | 237° |
| 2026-05-06 12:07 | 38.06304 | -108.70776 | 33849 ft | 482 kts | 236° |
| 2026-05-06 12:08 | 38.02192 | -108.77490 | 33855 ft | 483 kts | 236° |
| 2026-05-06 12:08 | 37.98061 | -108.84219 | 33858 ft | 484 kts | 236° |
| 2026-05-06 12:09 | 37.93914 | -108.90961 | 33863 ft | 485 kts | 236° |
| 2026-05-06 12:09 | 37.89755 | -108.97708 | 33866 ft | 486 kts | 236° |
| 2026-05-06 12:10 | 37.85581 | -109.04465 | 33864 ft | 487 kts | 236° |
| 2026-05-06 12:10 | 37.81393 | -109.11231 | 33870 ft | 488 kts | 236° |
| 2026-05-06 12:11 | 37.77223 | -109.17956 | 33880 ft | 489 kts | 236° |
| 2026-05-06 12:11 | 37.73013 | -109.24731 | 33923 ft | 490 kts | 236° |
| 2026-05-06 12:12 | 37.68790 | -109.31513 | 33956 ft | 491 kts | 236° |
| 2026-05-06 12:12 | 37.64555 | -109.38299 | 33985 ft | 492 kts | 236° |
| 2026-05-06 12:13 | 37.60307 | -109.45092 | 33990 ft | 493 kts | 236° |
| 2026-05-06 12:13 | 37.56048 | -109.51890 | 33990 ft | 494 kts | 236° |
| 2026-05-06 12:14 | 37.51778 | -109.58689 | 33981 ft | 495 kts | 236° |
| 2026-05-06 12:14 | 37.47494 | -109.65497 | 33944 ft | 496 kts | 236° |
| 2026-05-06 12:15 | 37.43200 | -109.72309 | 33910 ft | 497 kts | 236° |
| 2026-05-06 12:15 | 37.38899 | -109.79119 | 33873 ft | 498 kts | 235° |
| 2026-05-06 12:16 | 37.34576 | -109.85947 | 33846 ft | 499 kts | 235° |
| 2026-05-06 12:16 | 37.30250 | -109.92765 | 33846 ft | 500 kts | 235° |
| 2026-05-06 12:17 | 37.25910 | -109.99594 | 33847 ft | 501 kts | 235° |
| 2026-05-06 12:17 | 37.21551 | -110.06437 | 33842 ft | 502 kts | 235° |
| 2026-05-06 12:18 | 37.17185 | -110.13277 | 33840 ft | 503 kts | 235° |
| 2026-05-06 12:18 | 37.12851 | -110.20051 | 33842 ft | 503 kts | 235° |
| 2026-05-06 12:19 | 37.08463 | -110.26898 | 33846 ft | 504 kts | 234° |
| 2026-05-06 12:19 | 37.04065 | -110.33746 | 33847 ft | 505 kts | 234° |
| 2026-05-06 12:20 | 36.99658 | -110.40594 | 33856 ft | 506 kts | 234° |
| 2026-05-06 12:20 | 36.95952 | -110.46340 | 33861 ft | 506 kts | 234° |
| 2026-05-06 12:21 | 36.91562 | -110.53136 | 33863 ft | 507 kts | 234° |
| 2026-05-06 12:21 | 36.87120 | -110.59997 | 33868 ft | 507 kts | 234° |
| 2026-05-06 12:22 | 36.82673 | -110.66852 | 33875 ft | 508 kts | 234° |
| 2026-05-06 12:22 | 36.78220 | -110.73702 | 33880 ft | 508 kts | 234° |
| 2026-05-06 12:23 | 36.73762 | -110.80546 | 33879 ft | 502 kts | 234° |
| 2026-05-06 12:23 | 36.71589 | -110.83871 | 33878 ft | 488 kts | 234° |
| 2026-05-06 12:23 | 36.69462 | -110.87125 | 33878 ft | 484 kts | 234° |
| 2026-05-06 12:24 | 36.65198 | -110.93655 | 33879 ft | 486 kts | 234° |
| 2026-05-06 12:24 | 36.60930 | -111.00171 | 33882 ft | 486 kts | 234° |
| 2026-05-06 12:25 | 36.56649 | -111.06693 | 33888 ft | 487 kts | 233° |
| 2026-05-06 12:25 | 36.52363 | -111.13208 | 33889 ft | 486 kts | 233° |
| 2026-05-06 12:26 | 36.48069 | -111.19724 | 33886 ft | 486 kts | 233° |
| 2026-05-06 12:26 | 36.44013 | -111.25868 | 33898 ft | 487 kts | 233° |
| 2026-05-06 12:27 | 36.39711 | -111.32372 | 33908 ft | 487 kts | 233° |
| 2026-05-06 12:27 | 36.35404 | -111.38870 | 33909 ft | 487 kts | 233° |
| 2026-05-06 12:28 | 36.31097 | -111.45356 | 33924 ft | 487 kts | 233° |
| 2026-05-06 12:28 | 36.26782 | -111.51842 | 33937 ft | 487 kts | 233° |
| 2026-05-06 12:29 | 36.22462 | -111.58322 | 33949 ft | 487 kts | 233° |
| 2026-05-06 12:29 | 36.18144 | -111.64792 | 33961 ft | 487 kts | 232° |
| 2026-05-06 12:30 | 36.13827 | -111.71251 | 33970 ft | 486 kts | 232° |
| 2026-05-06 12:30 | 36.09605 | -111.77554 | 33998 ft | 466 kts | 233° |
| 2026-05-06 12:31 | 36.06149 | -111.84365 | 34043 ft | 474 kts | 248° |
| 2026-05-06 12:31 | 36.03667 | -111.92002 | 34078 ft | 482 kts | 251° |
| 2026-05-06 12:32 | 36.01216 | -111.99702 | 34111 ft | 482 kts | 251° |
| 2026-05-06 12:32 | 35.98748 | -112.07408 | 34130 ft | 482 kts | 251° |
| 2026-05-06 12:33 | 35.96290 | -112.15054 | 34127 ft | 483 kts | 251° |
| 2026-05-06 12:33 | 35.93803 | -112.22772 | 34124 ft | 484 kts | 251° |
| 2026-05-06 12:34 | 35.91312 | -112.30479 | 34112 ft | 484 kts | 251° |
| 2026-05-06 12:34 | 35.88906 | -112.37908 | 34089 ft | 485 kts | 251° |
| 2026-05-06 12:35 | 35.86393 | -112.45644 | 34066 ft | 485 kts | 251° |
| 2026-05-06 12:35 | 35.83877 | -112.53372 | 34032 ft | 486 kts | 251° |
| 2026-05-06 12:36 | 35.81356 | -112.61092 | 34014 ft | 487 kts | 251° |
| 2026-05-06 12:36 | 35.78823 | -112.68832 | 34015 ft | 487 kts | 251° |
| 2026-05-06 12:37 | 35.76295 | -112.76531 | 34009 ft | 488 kts | 251° |
| 2026-05-06 12:37 | 35.73744 | -112.84285 | 34004 ft | 488 kts | 251° |
| 2026-05-06 12:38 | 35.71186 | -112.92037 | 34000 ft | 489 kts | 251° |
| 2026-05-06 12:38 | 35.68622 | -112.99788 | 33987 ft | 490 kts | 251° |
| 2026-05-06 12:39 | 35.66048 | -113.07550 | 33991 ft | 490 kts | 251° |
| 2026-05-06 12:39 | 35.63465 | -113.15319 | 33986 ft | 491 kts | 251° |
| 2026-05-06 12:40 | 35.60874 | -113.23094 | 33981 ft | 492 kts | 251° |
| 2026-05-06 12:40 | 35.58273 | -113.30875 | 33987 ft | 493 kts | 250° |
| 2026-05-06 12:41 | 35.55663 | -113.38661 | 33987 ft | 493 kts | 250° |
| 2026-05-06 12:41 | 35.53044 | -113.46457 | 33983 ft | 494 kts | 250° |
| 2026-05-06 12:42 | 35.50418 | -113.54252 | 33978 ft | 494 kts | 250° |
| 2026-05-06 12:42 | 35.47783 | -113.62059 | 33980 ft | 495 kts | 250° |
| 2026-05-06 12:43 | 35.45146 | -113.69848 | 34003 ft | 496 kts | 250° |
| 2026-05-06 12:43 | 35.42491 | -113.77670 | 34024 ft | 496 kts | 250° |
| 2026-05-06 12:44 | 35.39847 | -113.85443 | 34046 ft | 497 kts | 250° |
| 2026-05-06 12:44 | 35.37180 | -113.93259 | 34062 ft | 498 kts | 250° |
| 2026-05-06 12:45 | 35.34500 | -114.01097 | 34067 ft | 498 kts | 250° |
| 2026-05-06 12:46 | 35.30475 | -114.12828 | 34043 ft | 499 kts | 250° |
| 2026-05-06 12:46 | 35.27778 | -114.20666 | 34014 ft | 499 kts | 250° |
| 2026-05-06 12:47 | 35.25077 | -114.28493 | 33977 ft | 499 kts | 250° |
| 2026-05-06 12:47 | 35.22365 | -114.36333 | 33991 ft | 500 kts | 250° |
| 2026-05-06 12:48 | 35.19672 | -114.44099 | 34007 ft | 500 kts | 250° |
| 2026-05-06 12:48 | 35.16945 | -114.51942 | 34008 ft | 501 kts | 250° |
| 2026-05-06 12:49 | 35.14216 | -114.59773 | 34006 ft | 501 kts | 250° |
| 2026-05-06 12:49 | 35.11487 | -114.67610 | 34003 ft | 501 kts | 250° |
| 2026-05-06 12:50 | 35.08760 | -114.75460 | 33999 ft | 502 kts | 250° |
| 2026-05-06 12:50 | 35.06029 | -114.83302 | 33996 ft | 502 kts | 250° |
| 2026-05-06 12:51 | 35.03180 | -114.91034 | 33994 ft | 505 kts | 242° |
| 2026-05-06 12:51 | 34.99728 | -114.98502 | 33992 ft | 504 kts | 246° |
| 2026-05-06 12:52 | 34.96635 | -115.06183 | 34004 ft | 505 kts | 246° |
| 2026-05-06 12:52 | 34.93437 | -115.13735 | 34011 ft | 506 kts | 245° |
| 2026-05-06 12:53 | 34.90118 | -115.21378 | 34019 ft | 506 kts | 244° |
| 2026-05-06 12:53 | 34.86807 | -115.28959 | 34023 ft | 507 kts | 244° |
| 2026-05-06 12:54 | 34.83491 | -115.36541 | 34022 ft | 508 kts | 244° |
| 2026-05-06 12:54 | 34.80166 | -115.44127 | 34029 ft | 508 kts | 245° |
| 2026-05-06 12:55 | 34.77540 | -115.51992 | 34034 ft | 506 kts | 248° |
| 2026-05-06 12:55 | 34.74468 | -115.59709 | 34037 ft | 508 kts | 246° |
| 2026-05-06 12:56 | 34.71459 | -115.67471 | 34042 ft | 507 kts | 248° |
| 2026-05-06 12:56 | 34.68557 | -115.75260 | 34049 ft | 508 kts | 249° |
| 2026-05-06 12:57 | 34.65654 | -115.83101 | 34046 ft | 508 kts | 249° |
| 2026-05-06 12:57 | 34.62748 | -115.90935 | 34050 ft | 508 kts | 249° |
| 2026-05-06 12:58 | 34.59863 | -115.98764 | 34053 ft | 509 kts | 249° |
| 2026-05-06 12:58 | 34.56974 | -116.06602 | 34067 ft | 509 kts | 249° |
| 2026-05-06 12:59 | 34.54075 | -116.14437 | 34072 ft | 511 kts | 249° |
| 2026-05-06 12:59 | 34.51152 | -116.22316 | 34092 ft | 512 kts | 249° |
| 2026-05-06 13:00 | 34.48263 | -116.30075 | 34069 ft | 511 kts | 249° |
| 2026-05-06 13:00 | 34.45319 | -116.37976 | 34060 ft | 513 kts | 248° |
| 2026-05-06 13:01 | 34.44827 | -116.39296 | 34052 ft | 513 kts | 248° |
| 2026-05-06 13:01 | 34.42493 | -116.45538 | 34041 ft | 513 kts | 248° |
| 2026-05-06 13:02 | 34.39440 | -116.53370 | 34016 ft | 514 kts | 246° |
| 2026-05-06 13:02 | 34.36205 | -116.61088 | 33851 ft | 513 kts | 245° |
| 2026-05-06 13:02 | 34.34608 | -116.64908 | 33428 ft | 506 kts | 246° |
| 2026-05-06 13:03 | 34.33035 | -116.68694 | 32901 ft | 501 kts | 246° |
| 2026-05-06 13:03 | 34.31500 | -116.72469 | 32374 ft | 496 kts | 247° |
| 2026-05-06 13:03 | 34.30004 | -116.76202 | 31879 ft | 491 kts | 247° |
| 2026-05-06 13:03 | 34.28523 | -116.79905 | 31370 ft | 486 kts | 247° |
| 2026-05-06 13:04 | 34.27057 | -116.83559 | 30877 ft | 482 kts | 247° |
| 2026-05-06 13:04 | 34.25597 | -116.87188 | 30405 ft | 477 kts | 247° |
| 2026-05-06 13:04 | 34.24149 | -116.90777 | 29912 ft | 473 kts | 247° |
| 2026-05-06 13:04 | 34.22734 | -116.94276 | 29377 ft | 469 kts | 247° |
| 2026-05-06 13:05 | 34.21301 | -116.97819 | 28832 ft | 465 kts | 247° |
| 2026-05-06 13:05 | 34.19889 | -117.01304 | 28304 ft | 461 kts | 247° |
| 2026-05-06 13:05 | 34.18488 | -117.04762 | 27784 ft | 456 kts | 247° |
| 2026-05-06 13:05 | 34.17101 | -117.08182 | 27174 ft | 454 kts | 247° |
| 2026-05-06 13:06 | 34.15737 | -117.11545 | 26562 ft | 453 kts | 247° |
| 2026-05-06 13:06 | 34.14354 | -117.14952 | 25951 ft | 452 kts | 247° |
| 2026-05-06 13:06 | 34.12966 | -117.18366 | 25348 ft | 451 kts | 247° |
| 2026-05-06 13:06 | 34.11609 | -117.21702 | 24773 ft | 450 kts | 247° |
| 2026-05-06 13:07 | 34.10217 | -117.25120 | 24181 ft | 450 kts | 247° |
| 2026-05-06 13:07 | 34.08836 | -117.28507 | 23591 ft | 448 kts | 247° |
| 2026-05-06 13:07 | 34.07465 | -117.31866 | 22936 ft | 445 kts | 246° |
| 2026-05-06 13:07 | 34.06514 | -117.34050 | 22490 ft | 445 kts | 240° |
| 2026-05-06 13:08 | 34.04732 | -117.37105 | 21811 ft | 444 kts | 237° |
| 2026-05-06 13:08 | 34.03053 | -117.40198 | 21167 ft | 441 kts | 240° |
| 2026-05-06 13:08 | 34.00920 | -117.44381 | 20305 ft | 439 kts | 239° |
| 2026-05-06 13:08 | 33.99882 | -117.46516 | 19823 ft | 437 kts | 245° |
| 2026-05-06 13:09 | 33.98811 | -117.49903 | 19167 ft | 430 kts | 259° |
| 2026-05-06 13:09 | 33.98483 | -117.53427 | 18588 ft | 420 kts | 275° |
| 2026-05-06 13:09 | 33.98850 | -117.56838 | 17958 ft | 412 kts | 284° |
| 2026-05-06 13:09 | 33.99365 | -117.60107 | 17375 ft | 408 kts | 284° |
| 2026-05-06 13:10 | 33.99906 | -117.63454 | 16828 ft | 402 kts | 284° |
| 2026-05-06 13:10 | 34.00367 | -117.66707 | 16642 ft | 389 kts | 279° |
| 2026-05-06 13:10 | 34.00470 | -117.69922 | 16489 ft | 378 kts | 271° |
| 2026-05-06 13:10 | 34.00231 | -117.73016 | 16362 ft | 366 kts | 266° |
| 2026-05-06 13:11 | 33.99926 | -117.76032 | 16011 ft | 359 kts | 266° |
| 2026-05-06 13:11 | 33.99636 | -117.79023 | 15474 ft | 360 kts | 267° |
| 2026-05-06 13:11 | 33.99353 | -117.81948 | 14933 ft | 355 kts | 267° |
| 2026-05-06 13:11 | 33.99073 | -117.84839 | 14403 ft | 348 kts | 267° |
| 2026-05-06 13:12 | 33.98795 | -117.87705 | 13868 ft | 341 kts | 267° |
| 2026-05-06 13:12 | 33.98524 | -117.90493 | 13311 ft | 336 kts | 266° |
| 2026-05-06 13:12 | 33.98254 | -117.93261 | 12723 ft | 332 kts | 266° |
| 2026-05-06 13:12 | 33.97985 | -117.96017 | 11969 ft | 333 kts | 266° |
| 2026-05-06 13:13 | 33.97713 | -117.98795 | 11241 ft | 335 kts | 265° |
| 2026-05-06 13:13 | 33.97442 | -118.01540 | 10657 ft | 330 kts | 265° |
| 2026-05-06 13:13 | 33.97170 | -118.04257 | 10149 ft | 324 kts | 265° |
| 2026-05-06 13:13 | 33.96902 | -118.06960 | 9389 ft | 325 kts | 265° |
| 2026-05-06 13:14 | 33.96656 | -118.09461 | 8683 ft | 326 kts | 265° |
| 2026-05-06 13:14 | 33.96402 | -118.12059 | 7966 ft | 326 kts | 264° |
| 2026-05-06 13:14 | 33.96125 | -118.14774 | 7234 ft | 326 kts | 264° |
| 2026-05-06 13:14 | 33.95842 | -118.17469 | 6522 ft | 325 kts | 264° |
| 2026-05-06 13:15 | 33.95582 | -118.20140 | 6145 ft | 311 kts | 264° |
| 2026-05-06 13:15 | 33.95341 | -118.22616 | 5474 ft | 288 kts | 265° |
| 2026-05-06 13:15 | 33.95116 | -118.24865 | 4597 ft | 251 kts | 264° |
| 2026-05-06 13:15 | 33.94846 | -118.26808 | 3591 ft | 221 kts | 260° |
| 2026-05-06 13:16 | 33.94546 | -118.28554 | 2584 ft | 208 kts | 259° |
| 2026-05-06 13:16 | 33.94368 | -118.30153 | 2162 ft | 182 kts | 264° |
| 2026-05-06 13:16 | 33.94255 | -118.31565 | 2043 ft | 163 kts | 266° |
| 2026-05-06 13:16 | 33.94168 | -118.32932 | 1701 ft | 172 kts | 264° |
| 2026-05-06 13:17 | 33.94031 | -118.34456 | 1101 ft | 187 kts | 263° |
| 2026-05-06 13:17 | 33.93915 | -118.35921 | 623 ft | 172 kts | 266° |
| 2026-05-06 13:17 | 33.93835 | -118.37221 | 332 ft | 155 kts | 264° |
| 2026-05-06 13:17 | 33.93713 | -118.38458 | 141 ft | 140 kts | 265° |
| 2026-05-06 13:18 | 33.93620 | -118.39387 | 124 ft | 71 kts | 262° |
| 2026-05-06 13:18 | 33.93591 | -118.39751 | 125 ft | 35 kts | 266° |
| 2026-05-06 13:18 | 33.93568 | -118.40002 | 123 ft | 26 kts | 248° |
| 2026-05-06 13:18 | 33.93523 | -118.40104 | 125 ft | 10 kts | 244° |
| 2026-05-06 13:19 | 33.93481 | -118.40190 | 125 ft | 9 kts | 227° |
| 2026-05-06 13:19 | 33.93420 | -118.40127 | 122 ft | 18 kts | 89° |
| 2026-05-06 13:19 | 33.93436 | -118.40004 | 121 ft | 22 kts | 84° |
| 2026-05-06 13:19 | 33.93447 | -118.39880 | 125 ft | 8 kts | 81° |
| 2026-05-06 13:20 | 33.93388 | -118.39819 | 125 ft | 18 kts | 209° |
| 2026-05-06 13:20 | 33.93357 | -118.39896 | 124 ft | 12 kts | 180° |
| 2026-05-06 13:20 | 33.93281 | -118.39888 | 124 ft | 0 kts | 172° |